createdAt,value
2019-01-24T00:00:06.785Z,33.98
2019-01-24T00:00:47.555Z,34.47
2019-01-24T00:01:23.307Z,35.38
2019-01-24T00:01:58.745Z,34.57
2019-01-24T00:02:34.511Z,33.70
2019-01-24T00:03:10.458Z,34.00
2019-01-24T00:03:46.137Z,33.97
2019-01-24T00:04:21.870Z,33.25
2019-01-24T00:04:57.626Z,35.38
2019-01-24T00:05:33.102Z,34.70
2019-01-24T00:06:09.192Z,35.70
2019-01-24T00:06:44.656Z,33.70
2019-01-24T00:07:20.097Z,33.83
2019-01-24T00:07:55.880Z,32.85
2019-01-24T00:08:31.621Z,33.98
2019-01-24T00:09:09.238Z,33.37
2019-01-24T00:09:45.002Z,32.85
2019-01-24T00:10:20.988Z,32.33
2019-01-24T00:10:56.458Z,33.23
2019-01-24T00:11:31.880Z,33.47
2019-01-24T00:12:07.697Z,33.23
2019-01-24T00:12:43.180Z,33.53
2019-01-24T00:13:18.660Z,32.53
2019-01-24T00:13:54.151Z,33.13
2019-01-24T00:14:29.926Z,34.10
2019-01-24T00:15:07.037Z,32.70
2019-01-24T00:15:42.813Z,33.25
2019-01-24T00:16:18.883Z,32.55
2019-01-24T00:16:54.622Z,33.05
2019-01-24T00:17:30.105Z,32.67
2019-01-24T00:18:06.494Z,32.63
2019-01-24T00:18:41.932Z,32.07
2019-01-24T00:19:17.924Z,34.27
2019-01-24T00:19:53.641Z,32.83
2019-01-24T00:20:29.390Z,33.30
2019-01-24T00:21:05.444Z,34.15
2019-01-24T00:21:41.346Z,32.33
2019-01-24T00:22:17.101Z,33.85
2019-01-24T00:22:53.368Z,31.60
2019-01-24T00:23:29.158Z,33.35
2019-01-24T00:24:05.010Z,32.80
2019-01-24T00:24:40.807Z,33.53
2019-01-24T00:25:16.344Z,33.03
2019-01-24T00:25:51.786Z,33.40
2019-01-24T00:26:27.489Z,33.07
2019-01-24T00:27:03.039Z,32.60
2019-01-24T00:27:38.502Z,33.10
2019-01-24T00:28:14.265Z,32.80
2019-01-24T00:28:50.014Z,33.25
2019-01-24T00:29:25.742Z,33.92
2019-01-24T00:30:01.780Z,33.67
2019-01-24T00:30:37.264Z,33.00
2019-01-24T00:31:13.299Z,32.48
2019-01-24T00:31:49.040Z,34.40
2019-01-24T00:32:24.770Z,35.17
2019-01-24T00:33:00.391Z,34.47
2019-01-24T00:33:36.793Z,34.03
2019-01-24T00:34:12.272Z,33.13
2019-01-24T00:34:48.021Z,33.92
2019-01-24T00:35:23.446Z,33.03
2019-01-24T00:35:59.202Z,33.95
2019-01-24T00:36:35.036Z,33.08
2019-01-24T00:37:11.077Z,33.60
2019-01-24T00:37:46.950Z,33.35
2019-01-24T00:38:22.660Z,33.87
2019-01-24T00:38:58.119Z,33.43
2019-01-24T00:39:33.910Z,33.50
2019-01-24T00:40:11.567Z,34.45
2019-01-24T00:40:47.102Z,34.27
2019-01-24T00:41:22.584Z,33.60
2019-01-24T00:41:58.376Z,33.88
2019-01-24T00:42:34.209Z,33.33
2019-01-24T00:43:09.803Z,34.30
2019-01-24T00:43:45.960Z,32.97
2019-01-24T00:44:21.646Z,31.97
2019-01-24T00:44:57.374Z,33.20
2019-01-24T00:45:33.495Z,32.17
2019-01-24T00:46:09.408Z,34.27
2019-01-24T00:46:45.433Z,33.33
2019-01-24T00:47:21.440Z,33.47
2019-01-24T00:47:57.459Z,33.02
2019-01-24T00:48:33.763Z,33.63
2019-01-24T00:49:09.270Z,31.50
2019-01-24T00:49:44.820Z,32.30
2019-01-24T00:50:20.541Z,34.57
2019-01-24T00:50:56.252Z,33.30
2019-01-24T00:51:32.145Z,33.73
2019-01-24T00:52:07.640Z,32.53
2019-01-24T00:52:43.492Z,32.33
2019-01-24T00:53:19.503Z,32.65
2019-01-24T00:53:55.261Z,33.63
2019-01-24T00:54:31.015Z,33.42
2019-01-24T00:55:08.800Z,34.33
2019-01-24T00:55:44.282Z,34.87
2019-01-24T00:56:19.708Z,34.60
2019-01-24T00:56:55.159Z,32.50
2019-01-24T00:57:30.881Z,32.20
2019-01-24T00:58:06.773Z,32.73
2019-01-24T00:58:42.527Z,31.87
2019-01-24T00:59:17.993Z,33.70
2019-01-24T00:59:53.732Z,32.58
2019-01-24T01:00:29.358Z,32.77
2019-01-24T01:01:05.286Z,33.53
2019-01-24T01:01:40.741Z,34.13
2019-01-24T01:02:16.186Z,32.83
2019-01-24T01:02:52.052Z,33.93
2019-01-24T01:03:27.495Z,34.40
2019-01-24T01:04:03.079Z,32.97
2019-01-24T01:04:38.840Z,33.70
2019-01-24T01:05:14.564Z,34.70
2019-01-24T01:05:50.752Z,34.67
2019-01-24T01:06:26.450Z,33.90
2019-01-24T01:07:02.359Z,33.90
2019-01-24T01:07:37.920Z,34.53
2019-01-24T01:08:13.636Z,33.40
2019-01-24T01:08:49.377Z,34.60
2019-01-24T01:09:24.826Z,33.37
2019-01-24T01:10:00.256Z,33.70
2019-01-24T01:10:35.774Z,33.30
2019-01-24T01:11:11.548Z,35.25
2019-01-24T01:11:47.004Z,35.10
2019-01-24T01:12:22.706Z,32.83
2019-01-24T01:12:58.753Z,33.27
2019-01-24T01:13:34.593Z,34.10
2019-01-24T01:14:10.356Z,32.67
2019-01-24T01:14:45.787Z,33.77
2019-01-24T01:15:21.227Z,34.77
2019-01-24T01:15:56.657Z,33.77
2019-01-24T01:16:32.096Z,33.17
2019-01-24T01:17:07.602Z,32.40
2019-01-24T01:17:43.041Z,33.43
2019-01-24T01:18:19.049Z,33.70
2019-01-24T01:18:54.512Z,33.63
2019-01-24T01:19:30.198Z,33.83
2019-01-24T01:20:07.510Z,34.20
2019-01-24T01:20:42.987Z,34.13
2019-01-24T01:21:18.763Z,33.67
2019-01-24T01:21:54.214Z,33.70
2019-01-24T01:22:29.940Z,34.23
2019-01-24T01:23:05.797Z,34.67
2019-01-24T01:23:41.334Z,34.47
2019-01-24T01:24:16.791Z,34.90
2019-01-24T01:24:52.515Z,34.98
2019-01-24T01:25:28.254Z,32.70
2019-01-24T01:26:03.741Z,34.13
2019-01-24T01:26:39.331Z,32.90
2019-01-24T01:27:15.292Z,33.27
2019-01-24T01:27:50.807Z,35.17
2019-01-24T01:28:26.244Z,32.47
2019-01-24T01:29:01.740Z,33.57
2019-01-24T01:29:37.337Z,34.57
2019-01-24T01:30:18.079Z,33.60
2019-01-24T01:30:53.538Z,33.73
2019-01-24T01:31:29.274Z,35.17
2019-01-24T01:32:05.374Z,33.40
2019-01-24T01:32:40.855Z,35.77
2019-01-24T01:33:16.340Z,32.83
2019-01-24T01:33:51.823Z,34.37
2019-01-24T01:34:27.351Z,33.37
2019-01-24T01:35:03.088Z,34.25
2019-01-24T01:35:38.595Z,34.87
2019-01-24T01:36:14.084Z,33.70
2019-01-24T01:36:49.848Z,33.57
2019-01-24T01:37:25.678Z,34.73
2019-01-24T01:38:01.275Z,35.97
2019-01-24T01:38:36.754Z,33.97
2019-01-24T01:39:12.327Z,34.50
2019-01-24T01:39:48.023Z,34.73
2019-01-24T01:40:23.452Z,33.67
2019-01-24T01:40:59.444Z,34.05
2019-01-24T01:41:35.515Z,35.63
2019-01-24T01:42:11.419Z,33.35
2019-01-24T01:42:47.244Z,35.28
2019-01-24T01:43:23.524Z,33.50
2019-01-24T01:43:59.009Z,34.70
2019-01-24T01:44:34.814Z,31.42
2019-01-24T01:45:13.541Z,33.63
2019-01-24T01:45:49.374Z,34.20
2019-01-24T01:46:24.827Z,31.80
2019-01-24T01:47:00.357Z,33.50
2019-01-24T01:47:36.266Z,33.60
2019-01-24T01:48:12.056Z,35.20
2019-01-24T01:48:47.510Z,35.00
2019-01-24T01:49:22.970Z,33.73
2019-01-24T01:49:58.705Z,34.63
2019-01-24T01:50:35.164Z,35.58
2019-01-24T01:51:10.759Z,34.87
2019-01-24T01:51:46.459Z,34.03
2019-01-24T01:52:22.469Z,33.85
2019-01-24T01:52:59.033Z,34.83
2019-01-24T01:53:35.059Z,35.10
2019-01-24T01:54:10.872Z,34.05
2019-01-24T01:54:46.884Z,34.15
2019-01-24T01:55:22.415Z,34.87
2019-01-24T01:55:58.408Z,33.75
2019-01-24T01:56:34.428Z,33.87
2019-01-24T01:57:10.507Z,34.38
2019-01-24T01:57:46.368Z,33.67
2019-01-24T01:58:22.118Z,35.75
2019-01-24T01:58:57.807Z,35.33
2019-01-24T01:59:33.404Z,34.83
2019-01-24T02:00:11.755Z,35.17
2019-01-24T02:00:47.499Z,35.08
2019-01-24T02:01:23.205Z,34.70
2019-01-24T02:01:59.219Z,34.27
2019-01-24T02:02:35.171Z,34.88
2019-01-24T02:03:10.984Z,34.27
2019-01-24T02:03:46.732Z,34.15
2019-01-24T02:04:22.194Z,34.73
2019-01-24T02:04:58.151Z,33.20
2019-01-24T02:05:34.220Z,34.38
2019-01-24T02:06:10.255Z,33.25
2019-01-24T02:06:46.021Z,33.00
2019-01-24T02:07:21.848Z,34.03
2019-01-24T02:07:57.849Z,35.68
2019-01-24T02:08:34.056Z,32.67
2019-01-24T02:09:10.618Z,34.58
2019-01-24T02:09:46.628Z,34.10
2019-01-24T02:10:24.190Z,32.90
2019-01-24T02:11:00.186Z,35.10
2019-01-24T02:11:36.020Z,34.03
2019-01-24T02:12:11.795Z,33.37
2019-01-24T02:12:47.638Z,33.78
2019-01-24T02:13:23.622Z,34.05
2019-01-24T02:13:59.478Z,33.80
2019-01-24T02:14:35.398Z,35.65
2019-01-24T02:15:11.645Z,33.80
2019-01-24T02:15:47.391Z,32.53
2019-01-24T02:16:22.824Z,34.97
2019-01-24T02:16:58.568Z,36.42
2019-01-24T02:17:34.371Z,33.45
2019-01-24T02:18:10.051Z,34.47
2019-01-24T02:18:45.592Z,33.43
2019-01-24T02:19:21.333Z,32.48
2019-01-24T02:19:56.872Z,32.97
2019-01-24T02:20:33.321Z,32.67
2019-01-24T02:21:08.766Z,33.93
2019-01-24T02:21:44.214Z,34.57
2019-01-24T02:22:19.638Z,33.20
2019-01-24T02:22:55.347Z,34.43
2019-01-24T02:23:31.347Z,35.47
2019-01-24T02:24:07.319Z,34.80
2019-01-24T02:24:43.070Z,34.67
2019-01-24T02:25:18.904Z,35.40
2019-01-24T02:25:54.637Z,34.20
2019-01-24T02:26:30.390Z,34.65
2019-01-24T02:27:06.874Z,33.78
2019-01-24T02:27:42.627Z,33.60
2019-01-24T02:28:18.644Z,33.40
2019-01-24T02:28:54.421Z,34.13
2019-01-24T02:29:30.147Z,34.57
2019-01-24T02:30:08.190Z,33.38
2019-01-24T02:30:43.984Z,33.50
2019-01-24T02:31:19.439Z,32.50
2019-01-24T02:31:55.211Z,34.65
2019-01-24T02:32:30.687Z,33.40
2019-01-24T02:33:06.634Z,33.25
2019-01-24T02:33:42.094Z,34.80
2019-01-24T02:34:17.599Z,33.20
2019-01-24T02:34:53.063Z,33.63
2019-01-24T02:35:28.526Z,31.97
2019-01-24T02:36:04.083Z,34.00
2019-01-24T02:36:39.850Z,34.43
2019-01-24T02:37:15.602Z,33.15
2019-01-24T02:37:51.070Z,31.83
2019-01-24T02:38:26.801Z,35.05
2019-01-24T02:39:02.265Z,33.50
2019-01-24T02:39:37.846Z,32.53
2019-01-24T02:40:13.473Z,34.00
2019-01-24T02:40:49.203Z,31.82
2019-01-24T02:41:24.636Z,32.13
2019-01-24T02:42:00.487Z,32.90
2019-01-24T02:42:36.314Z,33.28
2019-01-24T02:43:12.065Z,33.20
2019-01-24T02:43:47.527Z,32.80
2019-01-24T02:44:23.380Z,34.75
2019-01-24T02:44:59.370Z,32.15
2019-01-24T02:45:34.898Z,32.43
2019-01-24T02:46:10.379Z,32.90
2019-01-24T02:46:46.384Z,33.30
2019-01-24T02:47:21.858Z,32.57
2019-01-24T02:47:57.620Z,32.63
2019-01-24T02:48:33.395Z,31.37
2019-01-24T02:49:09.033Z,32.00
2019-01-24T02:49:44.558Z,32.93
2019-01-24T02:50:20.695Z,30.47
2019-01-24T02:50:56.186Z,31.63
2019-01-24T02:51:31.721Z,30.53
2019-01-24T02:52:07.530Z,32.37
2019-01-24T02:52:43.376Z,32.58
2019-01-24T02:53:19.134Z,31.37
2019-01-24T02:53:55.181Z,32.28
2019-01-24T02:54:31.229Z,31.60
2019-01-24T02:55:08.597Z,31.35
2019-01-24T02:55:44.099Z,32.27
2019-01-24T02:56:19.830Z,32.30
2019-01-24T02:56:55.385Z,32.13
2019-01-24T02:57:31.011Z,31.07
2019-01-24T02:58:06.917Z,31.60
2019-01-24T02:58:42.676Z,30.50
2019-01-24T02:59:18.389Z,30.70
2019-01-24T02:59:54.188Z,33.23
2019-01-24T03:00:29.684Z,30.57
2019-01-24T03:01:05.328Z,30.90
2019-01-24T03:01:41.350Z,31.62
2019-01-24T03:02:16.848Z,30.83
2019-01-24T03:02:52.796Z,30.57
2019-01-24T03:03:28.295Z,32.07
2019-01-24T03:04:03.854Z,31.43
2019-01-24T03:04:39.603Z,32.80
2019-01-24T03:05:16.768Z,31.13
2019-01-24T03:05:52.767Z,29.67
2019-01-24T03:06:28.861Z,30.57
2019-01-24T03:07:04.314Z,32.47
2019-01-24T03:07:40.080Z,30.92
2019-01-24T03:08:15.557Z,30.63
2019-01-24T03:08:51.045Z,30.77
2019-01-24T03:09:26.528Z,31.63
2019-01-24T03:10:02.025Z,33.30
2019-01-24T03:10:37.771Z,32.17
2019-01-24T03:11:13.495Z,32.07
2019-01-24T03:11:49.234Z,31.77
2019-01-24T03:12:25.004Z,32.98
2019-01-24T03:13:00.742Z,31.53
2019-01-24T03:13:36.503Z,32.90
2019-01-24T03:14:11.932Z,32.57
2019-01-24T03:14:47.739Z,33.45
2019-01-24T03:15:23.398Z,31.17
2019-01-24T03:15:59.211Z,31.75
2019-01-24T03:16:34.954Z,30.70
2019-01-24T03:17:10.665Z,32.45
2019-01-24T03:17:46.674Z,32.33
2019-01-24T03:18:22.451Z,32.65
2019-01-24T03:18:58.207Z,33.92
2019-01-24T03:19:33.640Z,32.37
2019-01-24T03:20:10.070Z,32.33
2019-01-24T03:20:45.830Z,32.38
2019-01-24T03:21:21.692Z,32.80
2019-01-24T03:21:57.176Z,33.17
2019-01-24T03:22:32.912Z,31.75
2019-01-24T03:23:08.645Z,32.00
2019-01-24T03:23:44.492Z,32.88
2019-01-24T03:24:20.198Z,34.07
2019-01-24T03:24:55.848Z,34.07
2019-01-24T03:25:31.523Z,33.07
2019-01-24T03:26:07.264Z,32.48
2019-01-24T03:26:42.817Z,32.40
2019-01-24T03:27:18.814Z,32.00
2019-01-24T03:27:54.587Z,33.25
2019-01-24T03:28:30.414Z,33.83
2019-01-24T03:29:06.457Z,33.45
2019-01-24T03:29:41.923Z,32.93
2019-01-24T03:30:19.811Z,32.33
2019-01-24T03:30:55.701Z,32.83
2019-01-24T03:31:31.480Z,32.15
2019-01-24T03:32:06.911Z,32.30
2019-01-24T03:32:42.655Z,33.28
2019-01-24T03:33:18.400Z,33.67
2019-01-24T03:33:54.189Z,33.25
2019-01-24T03:34:29.662Z,35.03
2019-01-24T03:35:07.516Z,33.93
2019-01-24T03:35:43.204Z,33.87
2019-01-24T03:36:18.656Z,33.23
2019-01-24T03:36:54.453Z,34.35
2019-01-24T03:37:30.327Z,32.58
2019-01-24T03:38:06.072Z,33.40
2019-01-24T03:38:41.808Z,34.20
2019-01-24T03:39:17.259Z,34.00
2019-01-24T03:39:52.791Z,34.90
2019-01-24T03:40:28.301Z,35.33
2019-01-24T03:41:03.987Z,34.37
2019-01-24T03:41:39.991Z,35.23
2019-01-24T03:42:15.722Z,33.50
2019-01-24T03:42:51.201Z,34.63
2019-01-24T03:43:26.726Z,32.57
2019-01-24T03:44:02.457Z,33.75
2019-01-24T03:44:38.180Z,33.73
2019-01-24T03:45:14.751Z,34.37
2019-01-24T03:45:50.291Z,34.10
2019-01-24T03:46:26.010Z,34.73
2019-01-24T03:47:01.744Z,34.78
2019-01-24T03:47:37.879Z,35.65
2019-01-24T03:48:13.613Z,34.83
2019-01-24T03:48:49.368Z,35.90
2019-01-24T03:49:24.883Z,33.73
2019-01-24T03:50:00.627Z,36.33
2019-01-24T03:50:36.106Z,34.77
2019-01-24T03:51:11.801Z,35.00
2019-01-24T03:51:47.253Z,35.40
2019-01-24T03:52:23.404Z,35.03
2019-01-24T03:52:58.868Z,34.53
2019-01-24T03:53:34.895Z,34.75
2019-01-24T03:54:10.352Z,34.83
2019-01-24T03:54:45.782Z,35.00
2019-01-24T03:55:22.657Z,36.45
2019-01-24T03:55:58.964Z,35.08
2019-01-24T03:56:34.718Z,35.63
2019-01-24T03:57:10.167Z,34.83
2019-01-24T03:57:45.586Z,36.17
2019-01-24T03:58:21.435Z,36.00
2019-01-24T03:58:57.606Z,36.35
2019-01-24T03:59:33.354Z,36.77
2019-01-24T04:00:12.596Z,35.92
2019-01-24T04:00:48.358Z,35.88
2019-01-24T04:01:24.155Z,37.23
2019-01-24T04:02:00.308Z,36.42
2019-01-24T04:02:36.140Z,34.75
2019-01-24T04:03:11.884Z,36.83
2019-01-24T04:03:47.902Z,36.17
2019-01-24T04:04:23.770Z,36.80
2019-01-24T04:04:59.623Z,36.77
2019-01-24T04:05:35.427Z,37.15
2019-01-24T04:06:11.153Z,36.50
2019-01-24T04:06:46.897Z,38.40
2019-01-24T04:07:22.654Z,36.25
2019-01-24T04:07:58.951Z,38.00
2019-01-24T04:08:34.807Z,36.50
2019-01-24T04:09:10.255Z,36.47
2019-01-24T04:09:46.273Z,38.28
2019-01-24T04:10:23.034Z,38.38
2019-01-24T04:10:58.786Z,38.88
2019-01-24T04:11:34.698Z,38.58
2019-01-24T04:12:10.447Z,39.90
2019-01-24T04:12:46.283Z,37.65
2019-01-24T04:13:22.541Z,40.63
2019-01-24T04:13:58.660Z,39.83
2019-01-24T04:14:34.359Z,40.53
2019-01-24T04:15:12.397Z,41.60
2019-01-24T04:15:48.140Z,43.20
2019-01-24T04:16:23.903Z,42.75
2019-01-24T04:16:59.961Z,43.33
2019-01-24T04:17:35.950Z,43.05
2019-01-24T04:18:11.698Z,42.58
2019-01-24T04:18:47.424Z,42.43
2019-01-24T04:19:23.221Z,42.88
2019-01-24T04:19:58.954Z,42.33
2019-01-24T04:20:34.727Z,44.15
2019-01-24T04:21:10.192Z,42.97
2019-01-24T04:21:45.619Z,43.87
2019-01-24T04:22:21.344Z,43.47
2019-01-24T04:22:57.418Z,43.35
2019-01-24T04:23:33.410Z,43.73
2019-01-24T04:24:08.870Z,42.30
2019-01-24T04:24:44.325Z,43.27
2019-01-24T04:25:19.833Z,43.43
2019-01-24T04:25:55.997Z,42.85
2019-01-24T04:26:31.421Z,44.67
2019-01-24T04:27:06.884Z,43.00
2019-01-24T04:27:42.611Z,44.90
2019-01-24T04:28:18.387Z,44.45
2019-01-24T04:28:54.174Z,42.78
2019-01-24T04:29:29.930Z,44.18
2019-01-24T04:30:07.667Z,44.93
2019-01-24T04:30:43.420Z,42.95
2019-01-24T04:31:19.202Z,44.83
2019-01-24T04:31:54.991Z,46.48
2019-01-24T04:32:30.408Z,44.97
2019-01-24T04:33:05.864Z,45.03
2019-01-24T04:33:41.703Z,45.85
2019-01-24T04:34:18.038Z,46.02
2019-01-24T04:34:53.840Z,46.42
2019-01-24T04:35:30.264Z,45.03
2019-01-24T04:36:06.029Z,45.10
2019-01-24T04:36:41.846Z,47.53
2019-01-24T04:37:17.292Z,46.13
2019-01-24T04:37:53.174Z,44.98
2019-01-24T04:38:29.264Z,46.23
2019-01-24T04:39:07.563Z,48.33
2019-01-24T04:39:43.295Z,44.70
2019-01-24T04:40:19.682Z,47.38
2019-01-24T04:40:55.449Z,47.73
2019-01-24T04:41:31.314Z,46.60
2019-01-24T04:42:07.052Z,46.92
2019-01-24T04:42:42.898Z,46.85
2019-01-24T04:43:18.725Z,47.37
2019-01-24T04:43:54.478Z,49.15
2019-01-24T04:44:30.495Z,46.98
2019-01-24T04:45:06.823Z,47.53
2019-01-24T04:45:42.285Z,46.57
2019-01-24T04:46:18.277Z,46.70
2019-01-24T04:46:54.116Z,48.73
2019-01-24T04:47:29.927Z,49.80
2019-01-24T04:48:05.675Z,48.87
2019-01-24T04:48:41.502Z,50.08
2019-01-24T04:49:17.241Z,48.23
2019-01-24T04:49:53.137Z,50.60
2019-01-24T04:50:28.966Z,50.38
2019-01-24T04:51:04.705Z,49.70
2019-01-24T04:51:40.566Z,50.03
2019-01-24T04:52:16.576Z,49.53
2019-01-24T04:52:52.327Z,50.03
2019-01-24T04:53:28.123Z,48.68
2019-01-24T04:54:04.156Z,51.13
2019-01-24T04:54:39.884Z,47.90
2019-01-24T04:55:17.375Z,51.50
2019-01-24T04:55:53.212Z,50.43
2019-01-24T04:56:28.958Z,49.93
2019-01-24T04:57:04.702Z,51.20
2019-01-24T04:57:40.454Z,50.70
2019-01-24T04:58:16.451Z,51.15
2019-01-24T04:58:52.254Z,50.48
2019-01-24T04:59:28.312Z,51.60
2019-01-24T05:00:05.925Z,51.80
2019-01-24T05:00:41.671Z,49.95
2019-01-24T05:01:17.670Z,50.75
2019-01-24T05:01:53.645Z,50.38
2019-01-24T05:02:29.690Z,49.85
2019-01-24T05:03:05.420Z,52.33
2019-01-24T05:03:41.138Z,50.00
2019-01-24T05:04:16.941Z,51.08
2019-01-24T05:04:52.980Z,50.70
2019-01-24T05:05:28.814Z,52.30
2019-01-24T05:06:04.601Z,52.17
2019-01-24T05:06:40.350Z,50.73
2019-01-24T05:07:16.079Z,52.08
2019-01-24T05:07:53.325Z,51.45
2019-01-24T05:08:29.098Z,50.33
2019-01-24T05:09:07.503Z,51.20
2019-01-24T05:09:43.241Z,52.23
2019-01-24T05:10:18.722Z,51.63
2019-01-24T05:10:54.529Z,52.17
2019-01-24T05:11:30.605Z,51.42
2019-01-24T05:12:06.649Z,53.00
2019-01-24T05:12:42.465Z,51.00
2019-01-24T05:13:18.251Z,53.33
2019-01-24T05:13:54.060Z,51.83
2019-01-24T05:14:29.813Z,52.08
2019-01-24T05:15:06.068Z,53.73
2019-01-24T05:15:41.816Z,51.85
2019-01-24T05:16:18.124Z,53.23
2019-01-24T05:16:53.940Z,51.40
2019-01-24T05:17:29.718Z,52.25
2019-01-24T05:18:05.744Z,52.75
2019-01-24T05:18:41.486Z,52.43
2019-01-24T05:19:17.501Z,53.68
2019-01-24T05:19:53.287Z,53.60
2019-01-24T05:20:29.341Z,51.45
2019-01-24T05:21:05.456Z,52.05
2019-01-24T05:21:41.297Z,52.17
2019-01-24T05:22:17.130Z,51.73
2019-01-24T05:22:52.981Z,52.45
2019-01-24T05:23:28.901Z,53.78
2019-01-24T05:24:04.631Z,51.60
2019-01-24T05:24:40.405Z,52.93
2019-01-24T05:25:17.196Z,51.42
2019-01-24T05:25:53.079Z,51.98
2019-01-24T05:26:28.820Z,52.90
2019-01-24T05:27:04.574Z,52.67
2019-01-24T05:27:40.631Z,51.05
2019-01-24T05:28:16.508Z,52.93
2019-01-24T05:28:52.934Z,52.10
2019-01-24T05:29:28.763Z,53.17
2019-01-24T05:30:05.832Z,52.05
2019-01-24T05:30:41.881Z,52.33
2019-01-24T05:31:17.766Z,53.83
2019-01-24T05:31:53.560Z,53.70
2019-01-24T05:32:29.342Z,52.78
2019-01-24T05:33:05.176Z,52.58
2019-01-24T05:33:40.913Z,51.63
2019-01-24T05:34:16.651Z,52.50
2019-01-24T05:34:52.649Z,51.33
2019-01-24T05:35:34.633Z,53.30
2019-01-24T05:36:06.525Z,52.78
2019-01-24T05:36:42.525Z,52.98
2019-01-24T05:37:18.682Z,54.98
2019-01-24T05:37:54.480Z,55.03
2019-01-24T05:38:30.295Z,52.05
2019-01-24T05:39:08.396Z,52.40
2019-01-24T05:39:44.145Z,52.98
2019-01-24T05:40:21.909Z,51.75
2019-01-24T05:40:57.816Z,52.88
2019-01-24T05:41:33.551Z,53.73
2019-01-24T05:42:09.535Z,51.63
2019-01-24T05:42:45.578Z,51.80
2019-01-24T05:43:21.487Z,54.33
2019-01-24T05:43:57.688Z,50.98
2019-01-24T05:44:33.686Z,50.23
2019-01-24T05:45:10.080Z,52.95
2019-01-24T05:45:46.148Z,52.30
2019-01-24T05:46:22.471Z,51.45
2019-01-24T05:46:58.237Z,53.48
2019-01-24T05:47:34.222Z,51.40
2019-01-24T05:48:10.002Z,54.00
2019-01-24T05:48:45.779Z,52.60
2019-01-24T05:49:21.369Z,54.40
2019-01-24T05:49:57.259Z,50.95
2019-01-24T05:50:33.014Z,52.53
2019-01-24T05:51:09.057Z,51.28
2019-01-24T05:51:44.900Z,52.60
2019-01-24T05:52:20.677Z,52.27
2019-01-24T05:52:56.819Z,52.20
2019-01-24T05:53:32.913Z,52.10
2019-01-24T05:54:08.671Z,51.65
2019-01-24T05:54:44.676Z,51.90
2019-01-24T05:55:20.484Z,50.98
2019-01-24T05:55:56.625Z,51.63
2019-01-24T05:56:32.383Z,51.48
2019-01-24T05:57:08.153Z,52.03
2019-01-24T05:57:44.148Z,53.28
2019-01-24T05:58:19.926Z,50.63
2019-01-24T05:58:56.065Z,52.95
2019-01-24T05:59:31.923Z,50.35
2019-01-24T06:00:09.755Z,51.15
2019-01-24T06:00:45.958Z,52.33
2019-01-24T06:01:21.883Z,50.75
2019-01-24T06:01:57.861Z,52.33
2019-01-24T06:02:33.694Z,53.90
2019-01-24T06:03:09.406Z,51.20
2019-01-24T06:03:46.118Z,53.60
2019-01-24T06:04:21.983Z,52.55
2019-01-24T06:04:57.801Z,50.55
2019-01-24T06:05:33.531Z,53.83
2019-01-24T06:06:09.367Z,52.88
2019-01-24T06:06:45.409Z,52.60
2019-01-24T06:07:21.241Z,52.80
2019-01-24T06:07:57.052Z,53.00
2019-01-24T06:08:33.081Z,51.33
2019-01-24T06:09:09.300Z,51.98
2019-01-24T06:09:45.033Z,52.40
2019-01-24T06:10:20.923Z,53.73
2019-01-24T06:10:57.035Z,53.02
2019-01-24T06:11:32.813Z,53.13
2019-01-24T06:12:09.140Z,52.67
2019-01-24T06:12:44.883Z,53.05
2019-01-24T06:13:20.682Z,53.90
2019-01-24T06:13:56.582Z,51.13
2019-01-24T06:14:32.323Z,53.20
2019-01-24T06:15:10.444Z,53.50
2019-01-24T06:15:46.470Z,53.87
2019-01-24T06:16:24.074Z,52.45
2019-01-24T06:16:59.948Z,53.80
2019-01-24T06:17:35.940Z,52.55
2019-01-24T06:18:11.924Z,53.15
2019-01-24T06:18:48.002Z,53.45
2019-01-24T06:19:23.759Z,53.25
2019-01-24T06:19:59.902Z,54.00
2019-01-24T06:20:35.983Z,52.95
2019-01-24T06:21:11.709Z,52.55
2019-01-24T06:21:47.484Z,51.65
2019-01-24T06:22:23.353Z,54.50
2019-01-24T06:22:59.155Z,55.12
2019-01-24T06:23:34.924Z,54.60
2019-01-24T06:24:10.635Z,53.25
2019-01-24T06:24:46.371Z,53.33
2019-01-24T06:25:22.427Z,50.65
2019-01-24T06:25:58.536Z,53.85
2019-01-24T06:26:34.314Z,52.20
2019-01-24T06:27:10.044Z,53.28
2019-01-24T06:27:45.799Z,54.25
2019-01-24T06:28:21.949Z,53.08
2019-01-24T06:28:58.450Z,52.48
2019-01-24T06:29:34.226Z,52.15
2019-01-24T06:30:16.614Z,52.65
2019-01-24T06:30:52.421Z,52.65
2019-01-24T06:31:28.325Z,53.20
2019-01-24T06:32:04.118Z,56.00
2019-01-24T06:32:39.877Z,51.70
2019-01-24T06:33:15.659Z,55.50
2019-01-24T06:33:51.765Z,54.67
2019-01-24T06:34:27.607Z,53.10
2019-01-24T06:35:03.476Z,53.58
2019-01-24T06:35:39.486Z,53.55
2019-01-24T06:36:15.233Z,51.95
2019-01-24T06:36:51.095Z,54.27
2019-01-24T06:37:26.953Z,54.48
2019-01-24T06:38:02.687Z,51.37
2019-01-24T06:38:38.717Z,54.53
2019-01-24T06:39:14.545Z,51.68
2019-01-24T06:39:50.320Z,53.85
2019-01-24T06:40:26.468Z,55.92
2019-01-24T06:41:02.233Z,50.85
2019-01-24T06:41:38.417Z,54.93
2019-01-24T06:42:14.461Z,54.35
2019-01-24T06:42:50.496Z,54.05
2019-01-24T06:43:26.323Z,53.05
2019-01-24T06:44:02.352Z,52.00
2019-01-24T06:44:38.087Z,54.20
2019-01-24T06:45:16.168Z,53.20
2019-01-24T06:45:52.227Z,53.52
2019-01-24T06:46:28.156Z,54.18
2019-01-24T06:47:04.057Z,54.88
2019-01-24T06:47:39.801Z,55.03
2019-01-24T06:48:15.549Z,56.50
2019-01-24T06:48:51.572Z,56.28
2019-01-24T06:49:27.397Z,56.50
2019-01-24T06:50:05.194Z,56.23
2019-01-24T06:50:40.958Z,55.00
2019-01-24T06:51:16.704Z,54.18
2019-01-24T06:51:52.795Z,56.45
2019-01-24T06:52:28.566Z,53.87
2019-01-24T06:53:04.383Z,53.52
2019-01-24T06:53:40.444Z,53.50
2019-01-24T06:54:16.194Z,53.58
2019-01-24T06:54:52.292Z,55.23
2019-01-24T06:55:29.455Z,54.08
2019-01-24T06:56:05.221Z,54.27
2019-01-24T06:56:41.250Z,52.70
2019-01-24T06:57:16.978Z,51.83
2019-01-24T06:57:52.787Z,54.93
2019-01-24T06:58:28.583Z,53.52
2019-01-24T06:59:04.320Z,53.23
2019-01-24T06:59:40.051Z,55.28
2019-01-24T07:00:17.179Z,53.50
2019-01-24T07:00:53.000Z,55.30
2019-01-24T07:01:28.788Z,54.95
2019-01-24T07:02:04.846Z,54.60
2019-01-24T07:02:40.630Z,51.15
2019-01-24T07:03:16.963Z,53.78
2019-01-24T07:03:52.762Z,52.43
2019-01-24T07:04:28.575Z,54.73
2019-01-24T07:05:04.463Z,54.88
2019-01-24T07:05:40.216Z,55.30
2019-01-24T07:06:16.251Z,52.95
2019-01-24T07:06:52.092Z,52.53
2019-01-24T07:07:28.263Z,54.83
2019-01-24T07:08:04.070Z,54.45
2019-01-24T07:08:40.093Z,53.08
2019-01-24T07:09:15.872Z,53.35
2019-01-24T07:09:51.622Z,54.27
2019-01-24T07:10:27.679Z,53.10
2019-01-24T07:11:04.006Z,54.50
2019-01-24T07:11:40.058Z,52.20
2019-01-24T07:12:16.062Z,53.45
2019-01-24T07:12:51.826Z,53.20
2019-01-24T07:13:27.651Z,56.08
2019-01-24T07:14:03.413Z,54.83
2019-01-24T07:14:39.154Z,54.03
2019-01-24T07:15:16.831Z,51.95
2019-01-24T07:15:52.652Z,52.17
2019-01-24T07:16:28.551Z,55.25
2019-01-24T07:17:04.331Z,51.73
2019-01-24T07:17:40.312Z,52.65
2019-01-24T07:18:16.072Z,53.17
2019-01-24T07:18:51.879Z,52.78
2019-01-24T07:19:29.040Z,54.38
2019-01-24T07:20:05.906Z,52.30
2019-01-24T07:20:41.929Z,54.58
2019-01-24T07:21:17.969Z,54.05
2019-01-24T07:21:54.136Z,53.42
2019-01-24T07:22:29.945Z,54.88
2019-01-24T07:23:05.709Z,53.00
2019-01-24T07:23:41.718Z,52.13
2019-01-24T07:24:17.478Z,54.42
2019-01-24T07:24:53.284Z,52.75
2019-01-24T07:25:29.493Z,53.95
2019-01-24T07:26:05.236Z,52.10
2019-01-24T07:26:41.260Z,53.17
2019-01-24T07:27:17.056Z,54.13
2019-01-24T07:27:52.879Z,52.88
2019-01-24T07:28:28.664Z,54.10
2019-01-24T07:29:04.432Z,55.90
2019-01-24T07:29:40.174Z,52.27
2019-01-24T07:30:16.479Z,53.75
2019-01-24T07:30:52.407Z,54.93
2019-01-24T07:31:28.211Z,54.42
2019-01-24T07:32:04.266Z,54.48
2019-01-24T07:32:40.265Z,52.45
2019-01-24T07:33:16.294Z,54.90
2019-01-24T07:33:52.097Z,53.58
2019-01-24T07:34:27.968Z,53.17
2019-01-24T07:35:04.169Z,53.55
2019-01-24T07:35:39.922Z,54.45
2019-01-24T07:36:15.661Z,53.30
2019-01-24T07:36:51.451Z,54.50
2019-01-24T07:37:27.253Z,53.55
2019-01-24T07:38:03.300Z,52.50
2019-01-24T07:38:39.090Z,50.15
2019-01-24T07:39:14.825Z,52.35
2019-01-24T07:39:50.546Z,53.78
2019-01-24T07:40:26.390Z,52.35
2019-01-24T07:41:02.286Z,53.10
2019-01-24T07:41:38.029Z,53.68
2019-01-24T07:42:13.793Z,55.88